| time (UTC) | temp C | wind direction | speed KPH | gust KPH | rain 1hr cm | rain 24hr cm | rain mn cm | humidity % | barometer mb |
| 20260510230523 | -17 | 115 | 0.0 | 0.0 | 0.00 | 0.08 | 0.00 | 1015.5 | |
| 20260510230024 | -17 | 111 | 0.0 | 0.0 | 0.00 | 0.08 | 0.00 | 1015.5 | |
| 20260510225753 | -17 | 138 | 0.0 | 0.0 | 0.00 | 0.08 | 0.00 | 1015.5 | |
| 20260510225252 | -17 | 106 | 0.0 | 0.0 | 0.00 | 0.08 | 0.00 | 1015.4 | |
| 20260510224522 | 28 | 137 | 0.0 | 0.0 | 0.00 | 0.10 | 0.00 | 1 | 1015.5 |
| 20260510224022 | 28 | 149 | 0.0 | 0.0 | 0.00 | 0.10 | 0.00 | 1 | 1015.3 |
| 20260510223754 | 28 | 138 | 0.0 | 0.0 | 0.00 | 0.10 | 0.00 | 1 | 1015.3 |
| 20260510223023 | 28 | 114 | 0.0 | 0.0 | 0.00 | 0.10 | 0.00 | 1 | 1015.3 |
| 20260510222748 | 28 | 143 | 0.0 | 0.0 | 0.00 | 0.10 | 0.00 | 1 | 1015.3 |
| 20260510222018 | 28 | 96 | 0.0 | 0.0 | 0.00 | 0.10 | 0.00 | 13 | 1015.2 |
| 20260510221518 | 28 | 117 | 0.0 | 0.0 | 0.00 | 0.10 | 0.00 | 24 | 1015.2 |
| 20260510221250 | 28 | 104 | 0.0 | 0.0 | 0.00 | 0.10 | 0.00 | 24 | 1015.2 |
| 20260510220519 | 28 | 136 | 0.0 | 0.0 | 0.00 | 0.10 | 0.00 | 33 | 1015.2 |
| 20260510220250 | 28 | 100 | 0.0 | 0.0 | 0.00 | 0.10 | 0.00 | 28 | 1015.2 |
| 20260510215516 | 28 | 121 | 0.0 | 0.0 | 0.00 | 0.10 | 0.00 | 27 | 1015.3 |
| 20260510215016 | 28 | 109 | 0.0 | 0.0 | 0.00 | 0.10 | 0.00 | 30 | 1015.4 |
| 20260510214521 | 28 | 109 | 0.0 | 0.0 | 0.00 | 0.10 | 0.00 | 27 | 1015.4 |
| 20260510214014 | 28 | 154 | 0.0 | 0.0 | 0.00 | 0.10 | 0.00 | 31 | 1015.3 |
| 20260510213515 | 28 | 106 | 0.0 | 0.0 | 0.00 | 0.10 | 0.00 | 33 | 1015.2 |
| 20260510213013 | 28 | 101 | 0.0 | 0.0 | 0.00 | 0.10 | 0.00 | 32 | 1015.2 |
| 20260510212512 | 28 | 131 | 0.0 | 0.0 | 0.00 | 0.10 | 0.00 | 35 | 1015.2 |
| 20260510212012 | 28 | 129 | 0.0 | 0.0 | 0.00 | 0.10 | 0.00 | 28 | 1015.2 |
| 20260510211511 | 28 | 136 | 0.0 | 0.0 | 0.00 | 0.10 | 0.00 | 23 | 1015.5 |
| 20260510211008 | 28 | 95 | 0.0 | 0.0 | 0.00 | 0.10 | 0.00 | 15 | 1015.5 |
| 20260510210509 | 28 | 136 | 0.0 | 0.0 | 0.00 | 0.10 | 0.00 | 20 | 1015.5 |
| 20260510210008 | 28 | 135 | 0.0 | 0.0 | 0.00 | 0.10 | 0.00 | 17 | 1015.5 |
| 20260510205508 | 28 | 59 | 0.0 | 0.0 | 0.00 | 0.10 | 0.00 | 13 | 1015.5 |
| 20260510205239 | 29 | 128 | 0.0 | 0.0 | 0.00 | 0.10 | 0.00 | 12 | 1015.3 |
| 20260510204507 | 28 | 129 | 0.0 | 0.0 | 0.00 | 0.10 | 0.00 | 11 | 1015.3 |
| 20260510204009 | 28 | 142 | 0.0 | 0.0 | 0.00 | 0.10 | 0.00 | 4 | 1015.5 |
| 20260510203505 | 28 | 119 | 0.0 | 0.0 | 0.00 | 0.10 | 0.00 | 10 | 1015.6 |
| 20260510203004 | 28 | 135 | 0.0 | 0.0 | 0.00 | 0.10 | 0.00 | 10 | 1015.5 |
| 20260510202504 | 28 | 111 | 0.0 | 0.0 | 0.00 | 0.10 | 0.00 | 1 | 1015.3 |
| 20260510202236 | 28 | 139 | 0.0 | 0.0 | 0.00 | 0.13 | 0.00 | 1 | 1015.4 |
| 20260510202114 | 28 | 169 | 0.0 | 0.0 | 0.00 | 0.13 | 0.00 | 1 | 1015.4 |
| 20260510201231 | 28 | 144 | 0.0 | 0.0 | 0.00 | 0.13 | 0.00 | 1 | 1015.3 |
| 20260510200455 | 28 | 136 | 0.0 | 0.0 | 0.00 | 0.13 | 0.00 | 1 | 1015.3 |
| 20260510195956 | 28 | 166 | 0.0 | 0.0 | 0.00 | 0.15 | 0.00 | 1 | 1015.3 |
| 20260510195457 | 28 | 134 | 0.0 | 0.0 | 0.00 | 0.15 | 0.00 | 2 | 1015.4 |
| 20260510194956 | 29 | 144 | 0.0 | 0.0 | 0.00 | 0.18 | 0.00 | 7 | 1015.4 |
| 20260510194456 | 29 | 127 | 0.0 | 0.0 | 0.00 | 0.18 | 0.00 | 9 | 1015.4 |
| 20260510193957 | 29 | 167 | 0.0 | 0.0 | 0.00 | 0.20 | 0.00 | 1 | 1015.4 |
| 20260510193452 | 29 | 117 | 0.0 | 0.0 | 0.00 | 0.20 | 0.00 | 1 | 1015.5 |
| 20260510192952 | 30 | 169 | 0.0 | 0.0 | 0.00 | 0.23 | 0.00 | 2 | 1015.5 |
| 20260510192452 | 30 | 134 | 0.0 | 0.0 | 0.00 | 0.23 | 0.00 | 3 | 1015.5 |
| 20260510191951 | -17 | 126 | 0.0 | 0.0 | 0.00 | 0.25 | 0.00 | 1015.6 | |
| 20260510191720 | -17 | 119 | 0.0 | 0.0 | 0.00 | 0.25 | 0.00 | 1015.5 | |
| 20260510190951 | -17 | 153 | 0.0 | 0.0 | 0.00 | 0.28 | 0.00 | 1015.6 | |
| 20260510190448 | -17 | 173 | 0.0 | 0.0 | 0.00 | 0.28 | 0.00 | 1015.6 | |
| 20260510185947 | -17 | 136 | 0.0 | 0.0 | 0.00 | 0.28 | 0.00 | 1015.6 | |
| 20260510185448 | -17 | 108 | 0.0 | 0.0 | 0.00 | 0.28 | 0.00 | 1015.5 | |
| 20260510184945 | -17 | 134 | 0.0 | 0.0 | 0.00 | 0.30 | 0.00 | 1015.6 | |
| 20260510184446 | -17 | 138 | 0.0 | 0.0 | 0.00 | 0.30 | 0.00 | 1015.7 | |
| 20260510183943 | -17 | 142 | 0.0 | 0.0 | 0.00 | 0.30 | 0.00 | 1015.6 | |
| 20260510183442 | -17 | 174 | 0.0 | 0.0 | 0.00 | 0.33 | 0.00 | 1015.7 | |
| 20260510182940 | -17 | 101 | 0.0 | 0.0 | 0.00 | 0.36 | 0.00 | 1015.9 | |
| 20260510182439 | -17 | 98 | 0.0 | 0.0 | 0.00 | 0.36 | 0.00 | 1015.8 | |
| 20260510182211 | -17 | 176 | 0.0 | 0.0 | 0.00 | 0.38 | 0.00 | 1016.0 | |
| 20260510181709 | -17 | 108 | 0.0 | 0.0 | 0.00 | 0.38 | 0.00 | 1016.0 | |
| 20260510180939 | -17 | 125 | 0.0 | 0.0 | 0.00 | 0.41 | 0.00 | 1016.1 | |
| 20260510180431 | -17 | 126 | 0.0 | 0.0 | 0.00 | 0.41 | 0.00 | 1016.4 | |
| 20260510175932 | -17 | 101 | 0.0 | 0.0 | 0.00 | 0.41 | 0.00 | 1016.4 | |
| 20260510175432 | -17 | 135 | 0.0 | 0.0 | 0.00 | 0.41 | 0.00 | 1016.5 | |
| 20260510174932 | -17 | 148 | 0.0 | 0.0 | 0.00 | 0.43 | 0.00 | 1016.6 | |
| 20260510174431 | -17 | 123 | 0.0 | 0.0 | 0.00 | 0.43 | 0.00 | 1016.6 | |
| 20260510173937 | -17 | 147 | 0.0 | 0.0 | 0.00 | 0.46 | 0.00 | 1016.6 | |
| 20260510173930 | -17 | 111 | 0.0 | 0.0 | 0.00 | 0.46 | 0.00 | 1016.6 | |
| 20260510172928 | -17 | 119 | 0.0 | 0.0 | 0.00 | 0.48 | 0.00 | 1016.6 | |
| 20260510172430 | 27 | 90 | 0.0 | 0.0 | 0.00 | 0.51 | 0.00 | 1 | 1016.7 |
| 20260510171925 | 27 | 128 | 0.0 | 0.0 | 0.00 | 0.53 | 0.00 | 1 | 1016.8 |
| 20260510171425 | 27 | 142 | 0.0 | 0.0 | 0.00 | 0.58 | 0.00 | 1 | 1016.8 |
| 20260510170926 | 27 | 97 | 0.0 | 0.0 | 0.00 | 0.64 | 0.00 | 1 | 1016.8 |
| 20260510170655 | 27 | 51 | 0.0 | 0.0 | 0.00 | 0.71 | 0.00 | 1 | 1016.9 |
| 20260510165924 | 27 | 61 | 0.0 | 0.0 | 0.00 | 0.76 | 0.00 | 1 | 1016.9 |
| 20260510165423 | 27 | 78 | 0.0 | 0.0 | 0.00 | 0.81 | 0.00 | 1 | 1017.0 |
| 20260510164923 | 27 | 54 | 0.0 | 0.0 | 0.00 | 0.86 | 0.00 | 1 | 1017.0 |
| 20260510164652 | 27 | 66 | 0.0 | 0.0 | 0.00 | 0.91 | 0.00 | 1 | 1016.9 |
| 20260510164152 | 28 | 121 | 0.0 | 0.0 | 0.00 | 0.91 | 0.00 | 1 | 1016.9 |
| 20260510163422 | 28 | 120 | 0.0 | 0.0 | 0.00 | 0.94 | 0.00 | 1 | 1016.8 |
| 20260510162922 | 27 | 128 | 0.0 | 0.0 | 0.00 | 0.97 | 0.00 | 1 | 1016.9 |
| 20260510162419 | 27 | 138 | 0.0 | 0.0 | 0.00 | 0.99 | 0.00 | 1 | 1016.9 |
| 20260510161917 | 27 | 109 | 0.0 | 0.0 | 0.00 | 0.99 | 0.00 | 1 | 1017.1 |
| 20260510161650 | 27 | 122 | 0.0 | 0.0 | 0.00 | 1.02 | 0.00 | 1 | 1017.1 |
| 20260510160917 | 26 | 146 | 0.0 | 0.0 | 0.00 | 1.04 | 0.00 | 1 | 1017.1 |
| 20260510160417 | 26 | 145 | 0.0 | 0.0 | 0.00 | 1.07 | 0.00 | 1 | 1016.9 |
| 20260510155918 | 26 | 110 | 0.0 | 0.0 | 0.00 | 1.09 | 0.00 | 1 | 1016.7 |
| 20260510155413 | 26 | 122 | 0.0 | 0.0 | 0.00 | 1.17 | 0.00 | 1 | 1016.7 |
| 20260510154914 | 26 | 115 | 0.0 | 0.0 | 0.00 | 1.24 | 0.00 | 1 | 1016.6 |
| 20260510154413 | 26 | 115 | 0.0 | 0.0 | 0.00 | 1.32 | 0.00 | 1 | 1016.7 |
| 20260510153913 | 26 | 109 | 0.0 | 0.0 | 0.00 | 1.32 | 0.00 | 1 | 1016.7 |
| 20260510153413 | 26 | 158 | 0.0 | 0.0 | 0.00 | 1.32 | 0.00 | 1 | 1016.7 |
| 20260510152913 | 26 | 65 | 0.0 | 0.0 | 0.00 | 1.32 | 0.00 | 1 | 1016.8 |
| 20260510152410 | 26 | 141 | 0.0 | 0.0 | 0.00 | 1.32 | 0.00 | 1 | 1016.8 |
| 20260510152141 | 26 | 66 | 0.0 | 0.0 | 0.00 | 1.32 | 0.00 | 1 | 1016.8 |
| 20260510151410 | 25 | 55 | 0.0 | 0.0 | 0.00 | 1.32 | 0.00 | 1 | 1016.8 |
| 20260510150908 | 25 | 63 | 0.0 | 0.0 | 0.00 | 1.32 | 0.00 | 1 | 1016.9 |
| 20260510150409 | 25 | 74 | 0.0 | 0.0 | 0.00 | 1.32 | 0.00 | 1 | 1017.0 |
| 20260510145909 | 25 | 88 | 0.0 | 0.0 | 0.00 | 1.32 | 0.00 | 1 | 1017.0 |
| 20260510145409 | 25 | 163 | 0.0 | 0.0 | 0.00 | 1.32 | 0.00 | 1 | 1017.0 |
| 20260510144909 | 25 | 151 | 0.0 | 0.0 | 0.00 | 1.32 | 0.00 | 1 | 1017.1 |
| 20260510144410 | 24 | 133 | 0.0 | 0.0 | 0.00 | 1.32 | 0.00 | 1 | 1017.1 |
| 20260510143907 | 24 | 76 | 0.0 | 0.0 | 0.00 | 1.32 | 0.00 | 1 | 1016.9 |
| 20260510143407 | 23 | 107 | 0.0 | 0.0 | 0.00 | 1.32 | 0.00 | 1 | 1016.9 |
| 20260510142905 | 23 | 169 | 0.0 | 0.0 | 0.00 | 1.32 | 0.00 | 1 | 1016.8 |
| 20260510142405 | 23 | 69 | 0.0 | 0.0 | 0.00 | 1.35 | 0.00 | 1 | 1016.9 |
| 20260510141905 | 23 | 57 | 0.0 | 0.0 | 0.00 | 1.35 | 0.00 | 1 | 1016.9 |
| 20260510141405 | 23 | 58 | 0.0 | 0.0 | 0.00 | 1.35 | 0.00 | 1 | 1016.8 |
| 20260510140904 | 22 | 88 | 0.0 | 0.0 | 0.00 | 1.37 | 0.00 | 1 | 1016.8 |
| 20260510140405 | 22 | 105 | 0.0 | 0.0 | 0.00 | 1.42 | 0.00 | 1 | 1016.7 |
| 20260510135906 | 22 | 63 | 0.0 | 0.0 | 0.00 | 1.55 | 0.00 | 1 | 1016.7 |
| 20260510135403 | 22 | 105 | 0.0 | 0.0 | 0.00 | 1.60 | 0.00 | 1 | 1016.8 |
| 20260510135134 | 22 | 63 | 0.0 | 0.0 | 0.00 | 1.63 | 0.00 | 1 | 1016.8 |
| 20260510134403 | 22 | 87 | 0.0 | 0.0 | 0.00 | 1.68 | 0.00 | 1 | 1016.8 |
| 20260510133900 | 21 | 69 | 0.0 | 0.0 | 0.00 | 1.75 | 0.00 | 1 | 1016.8 |
| 20260510133405 | 21 | 91 | 0.0 | 0.0 | 0.00 | 2.24 | 0.00 | 1 | 1016.7 |
| 20260510133401 | 21 | 56 | 0.0 | 0.0 | 0.00 | 1.88 | 0.00 | 1 | 1016.7 |
| 20260510132855 | 21 | 88 | 0.0 | 0.0 | 0.00 | 2.67 | 0.00 | 1 | 1016.6 |
| 20260510131853 | 21 | 100 | 0.0 | 0.0 | 0.00 | 2.97 | 0.00 | 1 | 1016.5 |
| 20260510131352 | 21 | 64 | 0.0 | 0.0 | 0.00 | 3.35 | 0.00 | 1 | 1016.5 |
| 20260510131122 | 21 | 53 | 0.0 | 0.0 | 0.00 | 3.35 | 0.00 | 1 | 1016.4 |
| 20260510130959 | 21 | 60 | 0.0 | 0.0 | 0.00 | 3.35 | 0.00 | 1 | 1016.3 |
| 20260510125851 | 21 | 57 | 0.0 | 0.0 | 0.00 | 3.35 | 0.00 | 1 | 1016.1 |
| 20260510125349 | 21 | 67 | 0.0 | 0.0 | 0.00 | 3.35 | 0.00 | 1 | 1016.1 |
| 20260510124848 | 20 | 55 | 0.0 | 0.0 | 0.00 | 3.35 | 0.00 | 1 | 1016.0 |
| 20260510124349 | 20 | 57 | 0.0 | 0.0 | 0.00 | 3.35 | 0.00 | 1 | 1016.0 |
| 20260510123848 | 20 | 57 | 0.0 | 0.0 | 0.00 | 3.35 | 0.00 | 1 | 1015.8 |
| 20260510123346 | 20 | 61 | 0.0 | 0.0 | 0.00 | 3.35 | 0.00 | 1 | 1015.7 |
| 20260510122845 | 20 | 62 | 0.0 | 0.0 | 0.00 | 3.35 | 0.00 | 1 | 1015.6 |
| 20260510122340 | 20 | 65 | 0.0 | 0.0 | 0.00 | 3.35 | 0.00 | 1 | 1015.6 |
| 20260510121837 | 20 | 74 | 0.0 | 0.0 | 0.00 | 3.35 | 0.00 | 1 | 1015.6 |
| 20260510121610 | -17 | 0.0 | 0.0 | 0.00 | 3.35 | 0.00 | 1015.5 | ||
| 20260510120833 | -17 | 0.0 | 0.0 | 0.00 | 3.35 | 0.00 | 1015.4 | ||
| 20260510120329 | -17 | 0.0 | 0.0 | 0.00 | 3.35 | 0.00 | 1015.5 | ||
| 20260510115734 | -17 | 0.0 | 0.0 | 0.00 | 3.35 | 0.00 | 1015.4 | ||
| 20260510115228 | -17 | 0.0 | 0.0 | 0.00 | 3.35 | 0.00 | 1015.3 | ||
| 20260510114634 | -17 | 0.0 | 0.0 | 0.00 | 3.35 | 0.00 | 1015.2 | ||
| 20260510114406 | -17 | 0.0 | 0.0 | 0.00 | 3.35 | 0.00 | 1015.1 | ||
| 20260510113631 | -17 | 0.0 | 0.0 | 0.00 | 3.35 | 0.00 | 1014.9 | ||
| 20260510113129 | -17 | 0.0 | 0.0 | 0.00 | 3.35 | 0.00 | 1014.7 | ||
| 20260510112629 | -17 | 0.0 | 0.0 | 0.00 | 3.35 | 0.00 | 1014.7 | ||
| 20260510112037 | 19 | 0.0 | 0.0 | 0.00 | 3.35 | 0.00 | 1 | 1014.6 | |
| 20260510111534 | 19 | 144 | 0.0 | 0.0 | 0.00 | 3.35 | 0.00 | 1 | 1014.6 |
| 20260510110939 | 19 | 144 | 0.0 | 0.0 | 0.00 | 3.35 | 0.00 | 1 | 1014.5 |
| 20260510110416 | 19 | 144 | 0.0 | 0.0 | 0.00 | 3.35 | 0.00 | 1 | 1014.4 |
| 20260510110144 | 20 | 130 | 0.0 | 0.0 | 0.00 | 3.35 | 0.00 | 1 | 1014.3 |
| 20260510105411 | 20 | 132 | 0.0 | 0.0 | 0.00 | 3.35 | 0.00 | 1 | 1014.3 |
| 20260510104912 | 20 | 127 | 0.0 | 0.0 | 0.00 | 3.35 | 0.00 | 1 | 1014.1 |
| 20260510104908 | 20 | 120 | 0.0 | 0.0 | 0.00 | 3.35 | 0.00 | 1 | 1014.2 |
| 20260510104136 | 20 | 128 | 0.0 | 0.0 | 0.00 | 3.35 | 0.00 | 1 | 1013.9 |
| 20260510103635 | 20 | 113 | 0.0 | 0.0 | 0.00 | 3.35 | 0.00 | 1 | 1013.9 |
| 20260510103513 | 20 | 78 | 0.0 | 0.0 | 0.00 | 3.35 | 0.00 | 1 | 1013.8 |
| 20260510102403 | 20 | 53 | 0.0 | 0.0 | 0.00 | 3.35 | 0.00 | 1 | 1013.8 |
| 20260510101904 | 20 | 52 | 0.0 | 0.0 | 0.00 | 3.35 | 0.00 | 1 | 1013.7 |
| 20260510101402 | 20 | 52 | 0.0 | 0.0 | 0.00 | 3.35 | 0.00 | 1 | 1013.5 |
| 20260510100857 | 20 | 52 | 0.0 | 0.0 | 0.00 | 3.35 | 0.00 | 1 | 1013.5 |
| 20260510100355 | 20 | 52 | 0.0 | 0.0 | 0.00 | 3.35 | 0.00 | 1 | 1013.4 |
| 20260510095852 | 20 | 52 | 0.0 | 0.0 | 0.00 | 3.35 | 0.00 | 1 | 1013.4 |
| 20260510095352 | 20 | 52 | 0.0 | 0.0 | 0.00 | 3.35 | 0.00 | 1 | 1013.4 |
| 20260510094851 | 20 | 52 | 0.0 | 0.0 | 0.00 | 3.35 | 0.00 | 1 | 1013.4 |
| 20260510094349 | 20 | 52 | 0.0 | 0.0 | 0.00 | 3.35 | 0.00 | 1 | 1013.4 |
| 20260510093847 | 20 | 52 | 0.0 | 0.0 | 0.00 | 3.35 | 0.00 | 1 | 1013.5 |
| 20260510093346 | 20 | 52 | 0.0 | 0.0 | 0.00 | 3.35 | 0.00 | 1 | 1013.5 |
| 20260510092843 | 20 | 52 | 0.0 | 0.0 | 0.00 | 3.35 | 0.00 | 1 | 1013.5 |
| 20260510092343 | 20 | 52 | 0.0 | 0.0 | 0.00 | 3.35 | 0.00 | 1 | 1013.4 |
| 20260510091842 | 20 | 52 | 0.0 | 0.0 | 0.00 | 3.35 | 0.00 | 1 | 1013.2 |
| 20260510091342 | 20 | 52 | 0.0 | 0.0 | 0.00 | 3.35 | 0.00 | 1 | 1013.2 |
| 20260510090845 | 20 | 52 | 0.0 | 0.0 | 0.00 | 3.35 | 0.00 | 1 | 1013.1 |
| 20260510090338 | 20 | 49 | 0.0 | 0.0 | 0.00 | 3.35 | 0.00 | 1 | 1013.1 |
| 20260510085833 | 20 | 47 | 0.0 | 0.0 | 0.00 | 3.35 | 0.00 | 1 | 1013.2 |
| 20260510085328 | 20 | 45 | 0.0 | 0.0 | 0.00 | 3.35 | 0.00 | 1 | 1013.1 |
| 20260510085100 | 20 | 49 | 0.0 | 0.0 | 0.00 | 3.35 | 0.00 | 1 | 1013.2 |
| 20260510084600 | 20 | 49 | 0.0 | 0.0 | 0.00 | 3.35 | 0.00 | 1 | 1013.1 |
| 20260510083829 | 20 | 46 | 0.0 | 0.0 | 0.00 | 3.35 | 0.00 | 1 | 1013.1 |
| 20260510083330 | 20 | 43 | 0.0 | 0.0 | 0.00 | 3.35 | 0.00 | 1 | 1013.2 |
| 20260510082828 | 20 | 30 | 0.0 | 0.0 | 0.00 | 3.35 | 0.00 | 1 | 1013.3 |
| 20260510082324 | 20 | 28 | 0.0 | 0.0 | 0.00 | 3.35 | 0.00 | 1 | 1013.2 |
| 20260510081824 | 20 | 28 | 0.0 | 0.0 | 0.00 | 3.35 | 0.00 | 1 | 1013.1 |
| 20260510081325 | 20 | 28 | 0.0 | 0.0 | 0.00 | 3.35 | 0.00 | 1 | 1013.1 |
| 20260510081055 | 20 | 28 | 0.0 | 0.0 | 0.00 | 3.35 | 0.00 | 1 | 1012.9 |
| 20260510080556 | 20 | 28 | 0.0 | 0.0 | 0.00 | 3.35 | 0.00 | 1 | 1012.9 |
| 20260510075824 | 20 | 28 | 0.0 | 0.0 | 0.00 | 3.35 | 0.00 | 1 | 1012.9 |
| 20260510075324 | 20 | 28 | 0.0 | 0.0 | 0.00 | 3.35 | 0.00 | 1 | 1012.9 |
| 20260510074825 | 20 | 28 | 0.0 | 0.0 | 0.00 | 3.35 | 0.00 | 1 | 1012.9 |
| 20260510074322 | 20 | 28 | 0.0 | 0.0 | 0.00 | 3.35 | 0.00 | 1 | 1012.9 |
| 20260510073826 | 20 | 28 | 0.0 | 0.0 | 0.00 | 3.35 | 0.00 | 1 | 1012.9 |
| 20260510073822 | 20 | 28 | 0.0 | 0.0 | 0.00 | 3.35 | 0.00 | 1 | 1012.8 |
| 20260510073048 | 20 | 28 | 0.0 | 0.0 | 0.00 | 3.35 | 0.00 | 1 | 1012.5 |
| 20260510072319 | 20 | 28 | 0.0 | 0.0 | 0.00 | 3.35 | 0.00 | 1 | 1012.5 |
| 20260510071818 | 20 | 28 | 0.0 | 0.0 | 0.00 | 3.35 | 0.00 | 1 | 1012.5 |
| 20260510071329 | 20 | 28 | 0.0 | 0.0 | 0.00 | 3.35 | 0.00 | 1 | 1012.5 |
| 20260510070816 | 20 | 28 | 0.0 | 0.0 | 0.00 | 3.35 | 0.00 | 1 | 1012.6 |
| 20260510070311 | 20 | 28 | 0.0 | 0.0 | 0.00 | 3.35 | 0.00 | 1 | 1012.7 |
| 20260510065808 | 20 | 28 | 0.0 | 0.0 | 0.00 | 3.35 | 0.00 | 1 | 1012.7 |
| 20260510065306 | 20 | 28 | 0.0 | 0.0 | 0.00 | 3.35 | 0.00 | 1 | 1012.9 |
| 20260510064803 | 20 | 28 | 0.0 | 0.0 | 0.00 | 3.35 | 0.00 | 1 | 1012.8 |
| 20260510064535 | 20 | 28 | 0.0 | 0.0 | 0.00 | 3.35 | 0.00 | 1 | 1012.8 |
| 20260510063801 | 20 | 28 | 0.0 | 0.0 | 0.00 | 3.35 | 0.00 | 1 | 1012.6 |
| 20260510063258 | 20 | 28 | 0.0 | 0.0 | 0.00 | 3.35 | 0.00 | 1 | 1012.6 |
| 20260510062755 | 20 | 28 | 0.0 | 0.0 | 0.00 | 3.35 | 0.00 | 1 | 1012.6 |
| 20260510062256 | 20 | 28 | 0.0 | 0.0 | 0.00 | 3.35 | 0.00 | 1 | 1012.6 |
| 20260510062024 | 20 | 28 | 0.0 | 0.0 | 0.00 | 3.35 | 0.00 | 1 | 1012.7 |
| 20260510061251 | 20 | 28 | 0.0 | 0.0 | 0.00 | 3.35 | 0.00 | 1 | 1012.8 |
| 20260510060749 | 20 | 28 | 0.0 | 0.0 | 0.00 | 3.35 | 0.00 | 1 | 1012.8 |
| 20260510060248 | 20 | 28 | 0.0 | 0.0 | 0.00 | 3.35 | 0.00 | 1 | 1012.8 |
| 20260510055747 | 20 | 28 | 0.0 | 0.0 | 0.00 | 3.35 | 0.00 | 1 | 1012.9 |
| 20260510055245 | 20 | 46 | 0.0 | 0.0 | 0.00 | 3.35 | 0.00 | 1 | 1012.8 |
| 20260510054743 | 20 | 163 | 0.0 | 0.0 | 0.00 | 3.35 | 0.00 | 1 | 1012.8 |
| 20260510054241 | 20 | 163 | 0.0 | 0.0 | 0.00 | 3.35 | 0.00 | 1 | 1012.6 |
| 20260510053742 | 20 | 163 | 0.0 | 0.0 | 0.00 | 3.35 | 0.00 | 1 | 1012.5 |
| 20260510053513 | 20 | 163 | 0.0 | 0.0 | 0.00 | 3.35 | 0.00 | 1 | 1012.6 |
| 20260510052740 | 20 | 163 | 0.0 | 0.0 | 0.00 | 3.35 | 0.00 | 1 | 1012.7 |
| 20260510052239 | 20 | 163 | 0.0 | 0.0 | 0.00 | 3.35 | 0.00 | 1 | 1012.6 |
| 20260510051740 | 20 | 163 | 0.0 | 0.0 | 0.00 | 3.35 | 0.00 | 1 | 1012.6 |
| 20260510051240 | 20 | 163 | 0.0 | 0.0 | 0.00 | 3.35 | 0.00 | 1 | 1012.6 |
| 20260510050740 | 20 | 163 | 0.0 | 0.0 | 0.00 | 3.35 | 0.00 | 1 | 1012.6 |
| 20260510050235 | 20 | 164 | 0.0 | 0.0 | 0.00 | 3.35 | 0.00 | 1 | 1012.9 |
| 20260510045735 | 20 | 164 | 0.0 | 0.0 | 0.00 | 3.35 | 3.35 | 1 | 1012.8 |
| 20260510045236 | 20 | 164 | 0.0 | 0.0 | 0.00 | 3.35 | 3.35 | 1 | 1012.8 |
| 20260510044736 | 20 | 164 | 0.0 | 0.0 | 0.00 | 3.35 | 3.35 | 1 | 1012.7 |
| 20260510044507 | 20 | 166 | 0.0 | 0.0 | 0.00 | 3.35 | 3.35 | 1 | 1012.8 |
| 20260510043736 | 20 | 175 | 0.0 | 0.0 | 0.00 | 3.35 | 3.35 | 1 | 1012.9 |
| 20260510043231 | 20 | 176 | 0.0 | 0.0 | 0.00 | 3.35 | 3.35 | 1 | 1013.0 |
| 20260510042732 | 20 | 177 | 0.0 | 0.0 | 0.00 | 3.35 | 3.35 | 1 | 1013.2 |
| 20260510042233 | 20 | 177 | 0.0 | 0.0 | 0.00 | 3.35 | 3.35 | 1 | 1013.1 |
| 20260510041731 | 20 | 166 | 0.0 | 0.0 | 0.00 | 3.35 | 3.35 | 1 | 1013.0 |
| 20260510041231 | 20 | 167 | 0.0 | 0.0 | 0.00 | 3.35 | 3.35 | 1 | 1012.9 |
| 20260510040731 | 20 | 173 | 0.0 | 0.0 | 0.00 | 3.35 | 3.35 | 1 | 1012.9 |
| 20260510040232 | 20 | 188 | 0.0 | 0.0 | 0.00 | 3.35 | 3.35 | 1 | 1012.9 |
| 20260510035731 | 20 | 171 | 0.0 | 0.0 | 0.00 | 3.35 | 3.35 | 1 | 1013.1 |
| 20260510035231 | 20 | 187 | 0.0 | 0.0 | 0.00 | 3.35 | 3.35 | 1 | 1013.2 |
| 20260510034729 | 20 | 221 | 0.0 | 0.0 | 0.00 | 3.35 | 3.35 | 1 | 1013.2 |
| 20260510034230 | 20 | 229 | 0.0 | 0.0 | 0.00 | 3.35 | 3.35 | 1 | 1013.4 |
| 20260510033729 | 20 | 200 | 0.0 | 0.0 | 0.00 | 3.35 | 3.35 | 1 | 1013.7 |
| 20260510033229 | 20 | 235 | 0.0 | 0.0 | 0.00 | 3.35 | 3.35 | 1 | 1013.7 |
| 20260510032730 | 20 | 234 | 0.0 | 0.0 | 0.00 | 3.35 | 3.35 | 1 | 1013.5 |
| 20260510032230 | 20 | 232 | 0.0 | 0.0 | 0.00 | 3.35 | 3.35 | 1 | 1013.5 |
| 20260510031726 | 20 | 232 | 0.0 | 0.0 | 0.00 | 3.35 | 3.35 | 1 | 1013.5 |
| 20260510031457 | 20 | 233 | 0.0 | 0.0 | 0.00 | 3.35 | 3.35 | 1 | 1013.5 |
| 20260510030725 | 20 | 222 | 0.0 | 0.0 | 0.00 | 3.35 | 3.35 | 1 | 1013.6 |
| 20260510030224 | 20 | 222 | 0.0 | 0.0 | 0.00 | 3.35 | 3.35 | 1 | 1013.7 |
| 20260510025719 | 20 | 222 | 0.0 | 0.0 | 0.00 | 3.35 | 3.35 | 1 | 1013.6 |
| 20260510025217 | 20 | 222 | 0.0 | 0.0 | 0.00 | 3.35 | 3.35 | 1 | 1013.8 |
| 20260510024714 | 20 | 222 | 0.0 | 0.0 | 0.00 | 3.35 | 3.35 | 1 | 1013.7 |
| 20260510024214 | 20 | 222 | 0.0 | 0.0 | 0.00 | 3.35 | 3.35 | 1 | 1013.6 |
| 20260510023713 | 20 | 224 | 0.0 | 0.0 | 0.00 | 3.35 | 3.35 | 1 | 1013.6 |
| 20260510023211 | 21 | 224 | 0.0 | 0.0 | 0.03 | 3.35 | 3.35 | 1 | 1013.3 |
| 20260510022709 | 21 | 224 | 0.0 | 0.0 | 0.03 | 3.35 | 3.35 | 1 | 1013.3 |
| 20260510022207 | 21 | 193 | 0.0 | 0.0 | 0.03 | 3.35 | 3.35 | 1 | 1013.1 |
| 20260510021707 | 21 | 214 | 0.0 | 0.0 | 0.03 | 3.35 | 3.35 | 1 | 1013.1 |
| 20260510021206 | 21 | 184 | 0.0 | 0.0 | 0.03 | 3.35 | 3.35 | 1 | 1012.9 |
| 20260510020940 | 21 | 198 | 0.0 | 0.0 | 0.03 | 3.35 | 3.35 | 1 | 1013.0 |
| 20260510020437 | 21 | 204 | 0.0 | 0.0 | 0.03 | 3.35 | 3.35 | 1 | 1013.1 |
| 20260510015704 | 21 | 166 | 0.0 | 0.0 | 0.03 | 3.35 | 3.35 | 1 | 1012.9 |
| 20260510015205 | 21 | 173 | 0.0 | 0.0 | 0.03 | 3.35 | 3.35 | 1 | 1012.9 |
| 20260510014941 | 21 | 150 | 0.0 | 0.0 | 0.03 | 3.35 | 3.35 | 1 | 1012.8 |
| 20260510014205 | 21 | 166 | 0.0 | 0.0 | 0.03 | 3.35 | 3.35 | 1 | 1012.8 |
| 20260510013706 | 21 | 206 | 0.0 | 0.0 | 0.03 | 3.35 | 3.35 | 1 | 1012.8 |
| 20260510013204 | 21 | 165 | 0.0 | 0.0 | 0.00 | 3.33 | 3.33 | 1 | 1012.6 |
| 20260510012701 | 21 | 153 | 0.0 | 0.0 | 0.00 | 3.33 | 3.33 | 1 | 1012.6 |
| 20260510012200 | 21 | 142 | 0.0 | 0.0 | 0.00 | 3.33 | 3.33 | 1 | 1012.8 |
| 20260510011659 | 21 | 165 | 0.0 | 0.0 | 0.00 | 3.33 | 3.33 | 1 | 1012.6 |
| 20260510011158 | 21 | 169 | 0.0 | 0.0 | 0.00 | 3.33 | 3.33 | 1 | 1012.4 |
| 20260510010930 | 21 | 141 | 0.0 | 0.0 | 0.00 | 3.33 | 3.33 | 1 | 1012.5 |
| 20260510010201 | 21 | 129 | 0.0 | 0.0 | 0.00 | 3.33 | 3.33 | 1 | 1012.5 |
| 20260510005652 | 21 | 170 | 0.0 | 0.0 | 0.00 | 3.33 | 3.33 | 1 | 1012.5 |
| 20260510005150 | 21 | 175 | 0.0 | 0.0 | 0.00 | 3.33 | 3.33 | 1 | 1012.6 |
| 20260510004649 | 21 | 142 | 0.0 | 0.0 | 0.00 | 3.33 | 3.33 | 1 | 1012.6 |
| 20260510004147 | 21 | 172 | 0.0 | 0.0 | 0.00 | 3.33 | 3.33 | 1 | 1012.6 |
| 20260510003649 | 21 | 174 | 0.0 | 0.0 | 0.00 | 3.33 | 3.33 | 1 | 1012.6 |
| 20260510003150 | 21 | 195 | 0.0 | 0.0 | 0.03 | 3.33 | 3.33 | 1 | 1012.6 |
| 20260510002643 | 21 | 187 | 0.0 | 0.0 | 0.03 | 3.33 | 3.33 | 1 | 1012.6 |
| 20260510002142 | 21 | 194 | 0.0 | 0.0 | 0.05 | 3.33 | 3.33 | 1 | 1012.6 |
| 20260510001643 | 21 | 173 | 0.0 | 0.0 | 0.05 | 3.33 | 3.33 | 1 | 1012.6 |
| 20260510001141 | 21 | 193 | 0.0 | 0.0 | 0.05 | 3.33 | 3.33 | 1 | 1012.5 |
| 20260510000912 | 21 | 163 | 0.0 | 0.0 | 0.05 | 3.33 | 3.33 | 1 | 1012.5 |
| 20260510000136 | 21 | 170 | 0.0 | 0.0 | 0.05 | 3.33 | 3.33 | 1 | 1012.4 |
| 20260509235906 | 21 | 173 | 0.0 | 0.0 | 0.05 | 3.33 | 3.33 | 1 | 1012.6 |
| 20260509235137 | 21 | 167 | 0.0 | 0.0 | 0.05 | 3.33 | 3.33 | 1 | 1012.6 |
| 20260509234634 | 21 | 139 | 0.0 | 0.0 | 0.08 | 3.33 | 3.33 | 1 | 1012.5 |
| 20260509234407 | 21 | 146 | 0.0 | 0.0 | 0.08 | 3.33 | 3.33 | 1 | 1012.3 |
| 20260509233635 | 21 | 151 | 0.0 | 0.0 | 0.08 | 3.33 | 3.33 | 1 | 1012.4 |
| 20260509233130 | 21 | 145 | 0.0 | 0.0 | 0.05 | 3.30 | 3.30 | 1 | 1012.5 |
| 20260509232630 | 21 | 168 | 0.0 | 0.0 | 0.05 | 3.30 | 3.30 | 1 | 1012.7 |
| 20260509232132 | 21 | 173 | 0.0 | 0.0 | 0.03 | 3.28 | 3.28 | 1 | 1013.0 |
| 20260509231901 | 21 | 205 | 0.0 | 0.0 | 0.03 | 3.28 | 3.28 | 1 | 1012.8 |